createdAt,value
2022-11-27T00:01:48.958Z,59.20
2022-11-27T00:03:50.941Z,54.38
2022-11-27T00:05:57.455Z,48.60
2022-11-27T00:07:59.094Z,50.42
2022-11-27T00:10:00.604Z,50.80
2022-11-27T00:12:02.058Z,49.88
2022-11-27T00:14:03.536Z,52.03
2022-11-27T00:16:06.487Z,51.72
2022-11-27T00:18:08.110Z,49.08
2022-11-27T00:20:09.786Z,50.90
2022-11-27T00:22:11.255Z,48.35
2022-11-27T00:24:13.042Z,46.78
2022-11-27T00:26:14.955Z,50.75
2022-11-27T00:28:16.385Z,58.58
2022-11-27T00:30:18.650Z,53.63
2022-11-27T00:32:20.183Z,47.17
2022-11-27T00:34:22.265Z,51.97
2022-11-27T00:36:24.642Z,53.00
2022-11-27T00:38:26.091Z,56.63
2022-11-27T00:40:27.580Z,64.13
2022-11-27T00:42:29.019Z,120.75
2022-11-27T00:44:30.641Z,140.52
2022-11-27T00:46:34.364Z,100.18
2022-11-27T00:48:36.075Z,83.50
2022-11-27T00:50:37.531Z,61.90
2022-11-27T00:52:39.087Z,73.03
2022-11-27T00:54:40.727Z,67.75
2022-11-27T00:56:42.362Z,64.20
2022-11-27T00:58:44.308Z,64.03
2022-11-27T01:00:45.738Z,54.42
2022-11-27T01:02:47.268Z,53.00
2022-11-27T01:04:49.073Z,51.05
2022-11-27T01:06:50.599Z,60.95
2022-11-27T01:08:52.107Z,58.47
2022-11-27T01:10:57.634Z,55.58
2022-11-27T01:12:59.059Z,58.45
2022-11-27T01:15:00.561Z,56.70
2022-11-27T01:17:02.076Z,56.35
2022-11-27T01:19:04.297Z,50.28
2022-11-27T01:21:06.275Z,45.92
2022-11-27T01:23:07.796Z,47.85
2022-11-27T01:25:09.470Z,47.42
2022-11-27T01:27:10.915Z,51.10
2022-11-27T01:29:12.625Z,49.78
2022-11-27T01:31:20.090Z,55.22
2022-11-27T01:33:21.654Z,50.50
2022-11-27T01:35:23.382Z,55.28
2022-11-27T01:37:24.856Z,53.35
2022-11-27T01:39:26.315Z,70.57
2022-11-27T01:41:31.222Z,52.83
2022-11-27T01:43:42.076Z,49.47
2022-11-27T01:45:45.415Z,49.53
2022-11-27T01:48:00.899Z,51.17
2022-11-27T01:50:26.031Z,54.65
2022-11-27T01:52:35.069Z,52.20
2022-11-27T01:54:45.506Z,56.03
2022-11-27T01:56:50.170Z,58.55
2022-11-27T01:58:52.226Z,56.40
2022-11-27T02:00:53.773Z,53.70
2022-11-27T02:02:55.329Z,53.65
2022-11-27T02:04:56.878Z,54.50
2022-11-27T02:06:59.960Z,54.90
2022-11-27T02:09:01.589Z,54.25
2022-11-27T02:11:09.154Z,53.55
2022-11-27T02:13:20.576Z,50.75
2022-11-27T02:15:34.335Z,47.58
2022-11-27T02:18:08.207Z,54.28
2022-11-27T02:20:34.289Z,51.33
2022-11-27T02:22:48.579Z,45.35
2022-11-27T02:25:07.996Z,44.90
2022-11-27T02:27:28.018Z,48.47
2022-11-27T02:29:33.101Z,47.08
2022-11-27T02:31:46.458Z,47.42
2022-11-27T02:33:54.367Z,48.70
2022-11-27T02:36:11.682Z,49.95
2022-11-27T02:38:25.534Z,46.95
2022-11-27T02:40:57.092Z,53.13
2022-11-27T02:43:19.282Z,49.15
2022-11-27T02:45:27.812Z,47.40
2022-11-27T02:47:30.728Z,47.70
2022-11-27T02:49:36.087Z,47.22
2022-11-27T02:51:45.600Z,47.72
2022-11-27T02:53:52.070Z,49.67
2022-11-27T02:55:54.024Z,48.50
2022-11-27T02:57:57.402Z,54.42
2022-11-27T03:00:00.313Z,46.42
2022-11-27T03:02:06.800Z,51.13
2022-11-27T03:04:13.023Z,43.95
2022-11-27T03:06:32.984Z,42.97
2022-11-27T03:08:45.627Z,42.22
2022-11-27T03:11:08.234Z,45.25
2022-11-27T03:13:09.940Z,39.72
2022-11-27T03:15:12.280Z,39.60
2022-11-27T03:17:33.500Z,37.30
2022-11-27T03:19:45.957Z,38.38
2022-11-27T03:22:00.746Z,38.22
2022-11-27T03:24:02.472Z,42.53
2022-11-27T03:26:04.020Z,41.85
2022-11-27T03:28:09.628Z,47.88
2022-11-27T03:30:12.288Z,45.50
2022-11-27T03:32:14.411Z,41.70
2022-11-27T03:34:19.140Z,44.25
2022-11-27T03:36:21.898Z,43.95
2022-11-27T03:38:23.441Z,45.97
2022-11-27T03:40:55.115Z,46.65
2022-11-27T03:43:23.069Z,45.75
2022-11-27T03:45:46.151Z,43.47
2022-11-27T03:47:55.125Z,51.80
2022-11-27T03:50:19.864Z,49.33
2022-11-27T03:52:39.062Z,47.95
2022-11-27T03:54:53.348Z,43.55
2022-11-27T03:57:15.082Z,44.15
2022-11-27T03:59:34.181Z,43.65
2022-11-27T04:01:36.385Z,62.55
2022-11-27T04:03:38.488Z,61.92
2022-11-27T04:05:40.097Z,55.92
2022-11-27T04:07:42.357Z,58.97
2022-11-27T04:09:43.920Z,46.08
2022-11-27T04:11:45.481Z,44.40
2022-11-27T04:13:46.940Z,40.90
2022-11-27T04:15:48.521Z,41.47
2022-11-27T04:17:49.996Z,39.05
2022-11-27T04:19:51.509Z,41.05
2022-11-27T04:21:52.950Z,40.28
2022-11-27T04:23:54.456Z,40.05
2022-11-27T04:25:55.893Z,44.40
2022-11-27T04:27:57.536Z,43.63
2022-11-27T04:29:59.039Z,44.03
2022-11-27T04:32:00.449Z,41.85
2022-11-27T04:34:01.917Z,40.97
2022-11-27T04:36:03.635Z,42.45
2022-11-27T04:38:05.114Z,48.28
2022-11-27T04:40:07.254Z,47.58
2022-11-27T04:42:08.813Z,46.13
2022-11-27T04:44:11.517Z,47.42
2022-11-27T04:46:12.983Z,43.45
2022-11-27T04:48:14.705Z,42.00
2022-11-27T04:50:16.184Z,44.40
2022-11-27T04:52:17.665Z,49.90
2022-11-27T04:54:19.088Z,64.50
2022-11-27T04:56:20.579Z,61.42
2022-11-27T04:58:22.118Z,52.35
2022-11-27T05:00:23.723Z,49.08
2022-11-27T05:02:25.216Z,45.78
2022-11-27T05:04:26.817Z,42.78
2022-11-27T05:06:28.342Z,44.75
2022-11-27T05:08:31.573Z,43.28
2022-11-27T05:10:33.101Z,57.90
2022-11-27T05:12:34.537Z,110.13
2022-11-27T05:14:35.986Z,60.78
2022-11-27T05:16:37.518Z,40.78
2022-11-27T05:18:39.024Z,40.47
2022-11-27T05:20:40.497Z,41.22
2022-11-27T05:22:41.936Z,42.83
2022-11-27T05:24:43.496Z,43.08
2022-11-27T05:26:45.269Z,39.30
2022-11-27T05:28:46.807Z,39.65
2022-11-27T05:30:48.996Z,39.03
2022-11-27T05:32:50.434Z,38.38
2022-11-27T05:34:51.964Z,109.00
2022-11-27T05:36:53.454Z,125.35
2022-11-27T05:38:54.991Z,77.90
2022-11-27T05:40:57.175Z,46.25
2022-11-27T05:42:58.619Z,49.30
2022-11-27T05:45:00.159Z,44.55
2022-11-27T05:47:01.724Z,42.92
2022-11-27T05:49:03.286Z,39.60
2022-11-27T05:51:05.273Z,40.13
2022-11-27T05:53:06.792Z,41.08
2022-11-27T05:55:08.755Z,69.93
2022-11-27T05:57:10.213Z,56.25
2022-11-27T05:59:12.610Z,61.92
2022-11-27T06:01:16.222Z,67.32
2022-11-27T06:03:17.816Z,52.40
2022-11-27T06:05:19.325Z,71.70
2022-11-27T06:07:20.810Z,51.35
2022-11-27T06:09:22.296Z,50.00
2022-11-27T06:11:23.843Z,57.17
2022-11-27T06:13:25.410Z,61.85
2022-11-27T06:15:26.973Z,53.33
2022-11-27T06:17:28.508Z,44.30
2022-11-27T06:19:30.249Z,58.25
2022-11-27T06:21:31.817Z,61.45
2022-11-27T06:23:33.639Z,80.97
2022-11-27T06:25:35.051Z,58.78
2022-11-27T06:27:36.772Z,50.08
2022-11-27T06:29:38.352Z,55.70
2022-11-27T06:31:40.095Z,60.15
2022-11-27T06:33:41.899Z,70.88
2022-11-27T06:35:43.370Z,62.08
2022-11-27T06:37:44.863Z,64.95
2022-11-27T06:39:48.450Z,56.15
2022-11-27T06:41:50.030Z,60.30
2022-11-27T06:43:51.499Z,64.95
2022-11-27T06:45:57.773Z,68.63
2022-11-27T06:47:59.283Z,61.58
2022-11-27T06:50:10.282Z,63.33
2022-11-27T06:52:23.409Z,79.07
2022-11-27T06:54:40.128Z,102.53
2022-11-27T06:56:53.844Z,175.85
2022-11-27T06:59:11.778Z,112.68
2022-11-27T07:01:24.643Z,52.55
2022-11-27T07:03:31.630Z,46.45
2022-11-27T07:05:33.147Z,43.65
2022-11-27T07:07:36.034Z,42.72
2022-11-27T07:09:40.029Z,43.45
2022-11-27T07:11:41.557Z,47.60
2022-11-27T07:13:50.779Z,80.40
2022-11-27T07:16:11.559Z,53.92
2022-11-27T07:18:16.613Z,42.45
2022-11-27T07:20:18.670Z,37.75
2022-11-27T07:22:20.100Z,37.90
2022-11-27T07:24:21.734Z,35.58
2022-11-27T07:26:28.759Z,42.92
2022-11-27T07:28:30.228Z,54.63
2022-11-27T07:30:44.485Z,53.88
2022-11-27T07:33:01.213Z,40.55
2022-11-27T07:35:11.799Z,37.35
2022-11-27T07:37:14.585Z,47.08
2022-11-27T07:39:25.206Z,54.88
2022-11-27T07:41:35.713Z,45.28
2022-11-27T07:43:37.897Z,49.13
2022-11-27T07:45:39.444Z,76.85
2022-11-27T07:47:40.980Z,44.58
2022-11-27T07:49:50.184Z,38.83
2022-11-27T07:52:19.383Z,38.35
2022-11-27T07:54:20.910Z,35.13
2022-11-27T07:56:34.692Z,39.13
2022-11-27T07:58:40.917Z,130.18
2022-11-27T08:00:42.644Z,123.63
2022-11-27T08:02:44.150Z,52.33
2022-11-27T08:04:45.870Z,42.33
2022-11-27T08:06:49.038Z,43.28
2022-11-27T08:09:08.783Z,41.67
2022-11-27T08:11:22.198Z,71.30
2022-11-27T08:13:30.074Z,39.60
2022-11-27T08:15:32.617Z,71.20
2022-11-27T08:17:34.175Z,87.22
2022-11-27T08:19:35.784Z,43.80
2022-11-27T08:21:37.352Z,49.10
2022-11-27T08:23:38.879Z,45.15
2022-11-27T08:25:45.780Z,35.13
2022-11-27T08:27:48.479Z,39.53
2022-11-27T08:29:49.955Z,46.28
2022-11-27T08:31:51.425Z,50.58
2022-11-27T08:33:52.917Z,49.03
2022-11-27T08:36:00.946Z,32.40
2022-11-27T08:38:02.745Z,43.55
2022-11-27T08:40:05.490Z,69.53
2022-11-27T08:42:06.999Z,37.15
2022-11-27T08:44:09.553Z,42.42
2022-11-27T08:46:11.528Z,45.63
2022-11-27T08:48:24.359Z,51.13
2022-11-27T08:50:29.199Z,50.28
2022-11-27T08:52:31.864Z,48.40
2022-11-27T08:54:33.341Z,49.40
2022-11-27T08:56:36.103Z,55.92
2022-11-27T08:58:37.695Z,60.03
2022-11-27T09:00:47.994Z,55.88
2022-11-27T09:03:03.158Z,39.85
2022-11-27T09:05:09.024Z,37.38
2022-11-27T09:07:14.277Z,36.17
2022-11-27T09:09:16.358Z,39.75
2022-11-27T09:11:19.519Z,55.10
2022-11-27T09:13:20.955Z,76.43
2022-11-27T09:15:27.060Z,68.05
2022-11-27T09:17:40.775Z,48.13
2022-11-27T09:19:43.040Z,35.45
2022-11-27T09:21:44.508Z,38.45
2022-11-27T09:23:47.389Z,40.42
2022-11-27T09:25:49.693Z,60.53
2022-11-27T09:27:51.338Z,61.58
2022-11-27T09:30:05.833Z,56.78
2022-11-27T09:32:12.052Z,49.85
2022-11-27T09:34:14.614Z,38.50
2022-11-27T09:36:21.652Z,57.03
2022-11-27T09:38:26.530Z,42.70
2022-11-27T09:40:28.154Z,51.72
2022-11-27T09:42:59.226Z,53.60
2022-11-27T09:45:00.888Z,57.22
2022-11-27T09:47:12.350Z,57.55
2022-11-27T09:49:22.711Z,41.53
2022-11-27T09:51:43.246Z,40.50
2022-11-27T09:54:04.668Z,44.13
2022-11-27T09:56:09.756Z,69.78
2022-11-27T09:58:29.938Z,63.15
2022-11-27T10:00:31.440Z,104.00
2022-11-27T10:02:44.482Z,81.63
2022-11-27T10:05:17.603Z,50.30
2022-11-27T10:07:47.069Z,33.00
2022-11-27T10:09:56.298Z,35.15
2022-11-27T10:12:09.209Z,27.83
2022-11-27T10:14:58.091Z,93.10
2022-11-27T10:17:17.306Z,41.65
2022-11-27T10:20:10.939Z,46.42
2022-11-27T10:22:21.083Z,52.22
2022-11-27T10:24:36.778Z,55.50
2022-11-27T10:26:41.591Z,53.58
2022-11-27T10:29:00.921Z,93.20
2022-11-27T10:31:08.235Z,155.48
2022-11-27T10:33:20.244Z,70.97
2022-11-27T10:35:30.464Z,59.22
2022-11-27T10:37:49.000Z,47.22
2022-11-27T10:40:01.238Z,40.90
2022-11-27T10:42:32.859Z,49.28
2022-11-27T10:44:58.042Z,38.38
2022-11-27T10:47:05.811Z,58.67
2022-11-27T10:49:07.303Z,58.85
2022-11-27T10:51:18.978Z,62.05
2022-11-27T10:53:35.325Z,96.78
2022-11-27T10:56:15.172Z,97.38
2022-11-27T10:58:25.622Z,84.82
2022-11-27T11:00:28.795Z,55.80
2022-11-27T11:02:40.097Z,49.67
2022-11-27T11:04:42.859Z,42.42
2022-11-27T11:06:50.314Z,41.97
2022-11-27T11:09:39.226Z,38.58
2022-11-27T11:11:41.064Z,38.88
2022-11-27T11:13:47.230Z,46.85
2022-11-27T11:16:32.012Z,60.03
2022-11-27T11:18:49.224Z,62.05
2022-11-27T11:20:54.707Z,39.35
2022-11-27T11:22:56.168Z,38.08
2022-11-27T11:24:59.418Z,42.35
2022-11-27T11:27:23.374Z,37.38
2022-11-27T11:29:40.741Z,41.78
2022-11-27T11:31:45.376Z,37.38
2022-11-27T11:33:59.912Z,33.13
2022-11-27T11:36:11.552Z,27.55
2022-11-27T11:38:31.603Z,27.80
2022-11-27T11:40:48.796Z,42.55
2022-11-27T11:43:23.476Z,25.33
2022-11-27T11:45:31.245Z,46.70
2022-11-27T11:47:34.438Z,30.58
2022-11-27T11:49:41.432Z,27.83
2022-11-27T11:52:01.765Z,23.52
2022-11-27T11:54:26.420Z,24.67
2022-11-27T11:56:37.723Z,26.20
2022-11-27T11:58:56.014Z,24.40
2022-11-27T12:01:43.529Z,24.33
2022-11-27T12:04:15.520Z,31.20
2022-11-27T12:06:41.150Z,24.27
2022-11-27T12:09:03.915Z,22.55
2022-11-27T12:11:16.977Z,20.80
2022-11-27T12:13:39.450Z,21.95
2022-11-27T12:15:49.985Z,23.05
2022-11-27T12:18:10.039Z,24.00
2022-11-27T12:20:21.877Z,21.27
2022-11-27T12:22:48.608Z,20.50
2022-11-27T12:25:28.629Z,20.20
2022-11-27T12:28:06.077Z,19.27
2022-11-27T12:30:22.998Z,19.52
2022-11-27T12:32:50.805Z,19.40
2022-11-27T12:35:23.140Z,18.00
2022-11-27T12:37:35.997Z,19.67
2022-11-27T12:39:59.152Z,19.38
2022-11-27T12:42:10.085Z,24.77
2022-11-27T12:44:57.471Z,21.55
2022-11-27T12:47:11.691Z,26.58
2022-11-27T12:49:29.864Z,40.15
2022-11-27T12:51:55.196Z,26.88
2022-11-27T12:54:19.893Z,21.83
2022-11-27T12:56:24.676Z,19.08
2022-11-27T12:58:33.379Z,17.98
2022-11-27T13:00:44.056Z,23.92
2022-11-27T13:03:01.136Z,24.02
2022-11-27T13:05:14.235Z,18.55
2022-11-27T13:07:30.789Z,26.52
2022-11-27T13:09:56.850Z,30.92
2022-11-27T13:12:01.398Z,24.45
2022-11-27T13:14:16.672Z,26.05
2022-11-27T13:16:27.622Z,31.08
2022-11-27T13:18:51.886Z,35.22
2022-11-27T13:21:01.559Z,30.08
2022-11-27T13:23:03.147Z,23.20
2022-11-27T13:25:05.356Z,22.77
2022-11-27T13:27:17.083Z,32.03
2022-11-27T13:29:28.918Z,33.47
2022-11-27T13:31:35.952Z,22.02
2022-11-27T13:33:41.861Z,29.58
2022-11-27T13:35:43.522Z,50.78
2022-11-27T13:37:59.752Z,82.90
2022-11-27T13:40:13.442Z,40.05
2022-11-27T13:42:23.738Z,32.75
2022-11-27T13:44:30.370Z,27.33
2022-11-27T13:46:43.732Z,30.52
2022-11-27T13:49:10.769Z,29.75
2022-11-27T13:51:24.120Z,31.10
2022-11-27T13:53:38.505Z,26.70
2022-11-27T13:56:08.494Z,31.17
2022-11-27T13:58:13.117Z,38.17
2022-11-27T14:00:42.458Z,41.22
2022-11-27T14:02:49.484Z,41.40
2022-11-27T14:04:56.624Z,41.17
2022-11-27T14:07:11.730Z,40.15
2022-11-27T14:09:31.560Z,47.83
2022-11-27T14:13:58.678Z,69.72
2022-11-27T14:16:06.136Z,59.70
2022-11-27T14:18:15.535Z,46.88
2022-11-27T14:20:17.120Z,41.42
2022-11-27T14:23:10.667Z,56.83
2022-11-27T14:25:32.036Z,36.80
2022-11-27T14:27:35.706Z,32.97
2022-11-27T14:29:37.195Z,48.25
2022-11-27T14:31:38.727Z,39.75
2022-11-27T14:34:07.332Z,78.13
2022-11-27T14:36:07.274Z,48.35
2022-11-27T14:38:15.404Z,56.03
2022-11-27T14:40:26.695Z,38.22
2022-11-27T14:42:30.663Z,37.90
2022-11-27T14:44:35.006Z,41.15
2022-11-27T14:46:37.699Z,44.72
2022-11-27T14:48:49.954Z,45.70
2022-11-27T14:50:53.183Z,47.70
2022-11-27T14:52:56.415Z,53.40
2022-11-27T14:54:59.368Z,56.80
2022-11-27T14:57:02.104Z,50.75
2022-11-27T14:59:04.291Z,44.83
2022-11-27T15:01:07.491Z,48.35
2022-11-27T15:03:10.879Z,46.97
2022-11-27T15:05:29.097Z,48.30
2022-11-27T15:07:34.400Z,53.35
2022-11-27T15:09:45.515Z,56.92
2022-11-27T15:12:13.418Z,76.85
2022-11-27T15:14:16.733Z,106.25
2022-11-27T15:16:22.576Z,84.15
2022-11-27T15:18:25.120Z,51.95
2022-11-27T15:20:44.995Z,55.20
2022-11-27T15:22:55.117Z,85.63
2022-11-27T15:25:02.175Z,91.25
2022-11-27T15:27:21.762Z,77.18
2022-11-27T15:31:38.480Z,57.13
2022-11-27T15:33:39.973Z,48.58
2022-11-27T15:35:41.421Z,53.03
2022-11-27T15:37:43.076Z,51.38
2022-11-27T15:39:52.817Z,54.38
2022-11-27T15:43:57.373Z,84.63
2022-11-27T15:45:59.123Z,135.80
2022-11-27T15:48:01.625Z,63.03
2022-11-27T15:50:05.271Z,90.10
2022-11-27T15:52:06.981Z,99.82
2022-11-27T15:54:08.806Z,95.97
2022-11-27T15:56:10.347Z,65.47
2022-11-27T15:58:11.913Z,63.63
2022-11-27T16:00:14.098Z,64.28
2022-11-27T16:02:18.045Z,62.97
2022-11-27T16:04:20.704Z,61.53
2022-11-27T16:06:24.674Z,86.35
2022-11-27T16:08:26.124Z,92.25
2022-11-27T16:10:27.682Z,81.25
2022-11-27T16:12:29.242Z,106.43
2022-11-27T16:14:30.735Z,118.20
2022-11-27T16:16:32.653Z,105.60
2022-11-27T16:18:35.106Z,95.55
2022-11-27T16:20:36.800Z,98.82
2022-11-27T16:22:38.246Z,87.95
2022-11-27T16:24:41.391Z,99.63
2022-11-27T16:26:43.056Z,81.35
2022-11-27T16:28:44.566Z,60.30
2022-11-27T16:30:46.008Z,89.40
2022-11-27T16:32:47.477Z,63.22
2022-11-27T16:34:50.430Z,235.38
2022-11-27T16:36:51.885Z,140.05
2022-11-27T16:38:54.712Z,86.78
2022-11-27T16:41:03.669Z,113.88
2022-11-27T16:43:05.219Z,122.45
2022-11-27T16:45:07.360Z,74.45
2022-11-27T16:47:08.761Z,89.13
2022-11-27T16:49:11.222Z,110.88
2022-11-27T16:51:21.719Z,122.13
2022-11-27T16:53:23.219Z,87.82
2022-11-27T16:55:25.755Z,96.78
2022-11-27T16:57:27.256Z,77.82
2022-11-27T16:59:28.855Z,103.50
2022-11-27T17:01:34.570Z,98.57
2022-11-27T17:03:37.140Z,97.35
2022-11-27T17:05:38.793Z,90.30
2022-11-27T17:07:40.976Z,66.05
2022-11-27T17:09:42.490Z,77.90
2022-11-27T17:11:48.653Z,65.68
2022-11-27T17:13:51.696Z,92.43
2022-11-27T17:15:53.108Z,66.13
2022-11-27T17:17:57.603Z,105.30
2022-11-27T17:20:00.778Z,245.40
2022-11-27T17:22:02.450Z,235.82
2022-11-27T17:24:11.615Z,144.40
2022-11-27T17:26:19.251Z,104.45
2022-11-27T17:28:20.739Z,85.75
2022-11-27T17:30:22.159Z,78.20
2022-11-27T17:32:24.993Z,79.45
2022-11-27T17:34:26.442Z,63.13
2022-11-27T17:36:33.791Z,70.00
2022-11-27T17:38:38.506Z,67.18
2022-11-27T17:40:40.114Z,73.57
2022-11-27T17:42:41.563Z,311.58
2022-11-27T17:44:43.110Z,204.27
2022-11-27T17:46:50.116Z,94.65
2022-11-27T17:48:52.331Z,77.93
2022-11-27T17:50:54.435Z,74.07
2022-11-27T17:52:55.918Z,106.85
2022-11-27T17:54:57.430Z,128.15
2022-11-27T17:56:58.891Z,106.32
2022-11-27T17:59:00.569Z,106.38
2022-11-27T18:01:02.469Z,115.10
2022-11-27T18:03:07.476Z,84.50
2022-11-27T18:05:09.551Z,88.80
2022-11-27T18:07:11.964Z,93.90
2022-11-27T18:09:13.533Z,172.07
2022-11-27T18:11:21.975Z,99.55
2022-11-27T18:13:26.305Z,86.35
2022-11-27T18:15:27.983Z,79.28
2022-11-27T18:17:29.535Z,71.70
2022-11-27T18:19:31.769Z,73.72
2022-11-27T18:21:33.384Z,70.55
2022-11-27T18:23:35.594Z,73.65
2022-11-27T18:25:43.607Z,75.10
2022-11-27T18:27:49.186Z,91.15
2022-11-27T18:29:50.701Z,136.65
2022-11-27T18:31:53.408Z,276.15
2022-11-27T18:33:58.732Z,127.75
2022-11-27T18:36:00.403Z,87.25
2022-11-27T18:38:01.934Z,94.57
2022-11-27T18:40:03.625Z,85.78
2022-11-27T18:42:06.462Z,81.00
2022-11-27T18:44:09.134Z,75.75
2022-11-27T18:46:14.777Z,65.15
2022-11-27T18:48:16.317Z,60.40
2022-11-27T18:50:17.814Z,57.75
2022-11-27T18:52:19.378Z,58.15
2022-11-27T18:54:21.853Z,60.10
2022-11-27T18:56:29.439Z,186.30
2022-11-27T18:58:35.014Z,161.88
2022-11-27T19:00:36.552Z,89.07
2022-11-27T19:02:38.108Z,74.45
2022-11-27T19:04:40.072Z,58.00
2022-11-27T19:06:42.648Z,52.70
2022-11-27T19:08:44.668Z,52.38
2022-11-27T19:10:46.169Z,53.65
2022-11-27T19:12:47.674Z,54.40
2022-11-27T19:14:49.174Z,55.45
2022-11-27T19:16:50.845Z,49.75
2022-11-27T19:18:52.722Z,55.47
2022-11-27T19:20:55.181Z,81.50
2022-11-27T19:22:56.728Z,127.60
2022-11-27T19:24:58.281Z,87.05
2022-11-27T19:27:00.024Z,102.07
2022-11-27T19:29:05.611Z,128.48
2022-11-27T19:31:09.286Z,88.25
2022-11-27T19:33:11.177Z,124.97
2022-11-27T19:35:12.613Z,103.15
2022-11-27T19:37:14.127Z,138.60
2022-11-27T19:39:15.889Z,245.35
2022-11-27T19:41:18.336Z,93.30
2022-11-27T19:43:19.871Z,91.63
2022-11-27T19:45:24.397Z,109.13
2022-11-27T19:47:25.891Z,86.10
2022-11-27T19:49:27.392Z,84.90
2022-11-27T19:51:33.237Z,84.97
2022-11-27T19:53:34.728Z,76.10
2022-11-27T19:55:36.186Z,90.13
2022-11-27T19:57:38.212Z,68.07
2022-11-27T19:59:40.426Z,138.48
2022-11-27T20:01:42.468Z,202.43
2022-11-27T20:03:44.832Z,226.52
2022-11-27T20:05:46.434Z,124.88
2022-11-27T20:07:48.574Z,87.75
2022-11-27T20:09:50.205Z,77.15
2022-11-27T20:11:51.710Z,70.05
2022-11-27T20:13:57.934Z,76.55
2022-11-27T20:15:59.582Z,74.70
2022-11-27T20:18:01.164Z,95.38
2022-11-27T20:20:02.653Z,71.05
2022-11-27T20:22:04.118Z,70.28
2022-11-27T20:24:06.015Z,79.38
2022-11-27T20:26:10.508Z,188.35
2022-11-27T20:28:12.048Z,126.03
2022-11-27T20:30:13.775Z,110.28
2022-11-27T20:32:15.268Z,131.02
2022-11-27T20:34:20.231Z,80.35
2022-11-27T20:36:23.545Z,76.32
2022-11-27T20:38:26.623Z,80.03
2022-11-27T20:40:28.469Z,102.40
2022-11-27T20:42:30.067Z,112.40
2022-11-27T20:44:31.562Z,90.22
2022-11-27T20:46:33.280Z,91.53
2022-11-27T20:48:35.271Z,86.55
2022-11-27T20:50:38.693Z,85.38
2022-11-27T20:52:40.283Z,62.75
2022-11-27T20:54:41.893Z,57.08
2022-11-27T20:56:45.879Z,101.78
2022-11-27T20:58:48.169Z,86.68
2022-11-27T21:00:49.784Z,74.82
2022-11-27T21:02:51.398Z,106.68
2022-11-27T21:04:53.083Z,87.32
2022-11-27T21:06:54.554Z,85.68
2022-11-27T21:08:56.269Z,97.93
2022-11-27T21:10:57.726Z,93.07
2022-11-27T21:12:59.409Z,79.43
2022-11-27T21:15:00.884Z,81.07
2022-11-27T21:17:05.017Z,96.95
2022-11-27T21:19:12.160Z,92.32
2022-11-27T21:21:14.410Z,95.15
2022-11-27T21:23:15.934Z,93.43
2022-11-27T21:25:20.455Z,73.63
2022-11-27T21:27:27.824Z,73.40
2022-11-27T21:29:29.364Z,73.00
2022-11-27T21:31:35.883Z,69.00
2022-11-27T21:33:38.933Z,66.07
2022-11-27T21:35:40.635Z,58.05
2022-11-27T21:37:43.263Z,59.58
2022-11-27T21:39:44.934Z,66.97
2022-11-27T21:41:51.889Z,55.22
2022-11-27T21:43:58.707Z,55.08
2022-11-27T21:46:20.160Z,56.70
2022-11-27T21:48:21.617Z,60.28
2022-11-27T21:50:23.058Z,68.28
2022-11-27T21:52:24.537Z,53.53
2022-11-27T21:54:26.057Z,43.72
2022-11-27T21:56:29.737Z,39.75
2022-11-27T21:58:34.178Z,40.40
2022-11-27T22:00:36.967Z,41.42
2022-11-27T22:02:38.539Z,40.90
2022-11-27T22:04:40.523Z,41.95
2022-11-27T22:06:45.032Z,42.67
2022-11-27T22:08:49.246Z,45.70
2022-11-27T22:10:50.967Z,47.95
2022-11-27T22:12:52.506Z,53.83
2022-11-27T22:14:53.995Z,48.15
2022-11-27T22:16:57.047Z,41.85
2022-11-27T22:18:59.692Z,41.47
2022-11-27T22:21:06.085Z,41.55
2022-11-27T22:23:07.625Z,40.83
2022-11-27T22:25:09.288Z,39.45
2022-11-27T22:27:10.734Z,39.03
2022-11-27T22:29:12.254Z,39.40
2022-11-27T22:31:16.675Z,40.42
2022-11-27T22:33:18.496Z,40.08
2022-11-27T22:35:20.444Z,44.25
2022-11-27T22:37:21.943Z,40.58
2022-11-27T22:39:23.465Z,36.95
2022-11-27T22:41:27.076Z,38.45
2022-11-27T22:43:28.539Z,42.92
2022-11-27T22:45:30.159Z,48.33
2022-11-27T22:47:31.665Z,42.50
2022-11-27T22:49:33.181Z,42.63
2022-11-27T22:51:36.123Z,40.95
2022-11-27T22:53:37.966Z,44.78
2022-11-27T22:55:39.425Z,43.00
2022-11-27T22:57:41.120Z,45.15
2022-11-27T22:59:42.558Z,48.70
2022-11-27T23:01:44.081Z,43.33
2022-11-27T23:03:45.892Z,46.00
2022-11-27T23:05:47.642Z,45.35
2022-11-27T23:07:49.239Z,44.13
2022-11-27T23:09:50.790Z,44.72
2022-11-27T23:11:52.857Z,41.50
2022-11-27T23:13:55.575Z,42.60
2022-11-27T23:15:57.073Z,47.05
2022-11-27T23:17:58.763Z,47.15
2022-11-27T23:20:00.282Z,49.58
2022-11-27T23:22:01.868Z,51.47
2022-11-27T23:24:04.638Z,49.17
2022-11-27T23:26:07.772Z,45.72
2022-11-27T23:28:09.408Z,45.00
2022-11-27T23:30:11.176Z,50.53
2022-11-27T23:32:12.644Z,48.97
2022-11-27T23:34:15.380Z,65.28
2022-11-27T23:36:17.051Z,60.92
2022-11-27T23:38:18.476Z,47.88
2022-11-27T23:40:20.108Z,44.75
2022-11-27T23:42:21.561Z,42.38
2022-11-27T23:44:23.017Z,43.58
2022-11-27T23:46:26.937Z,47.03
2022-11-27T23:48:28.391Z,42.10
2022-11-27T23:50:29.832Z,41.40
2022-11-27T23:52:31.316Z,48.85
2022-11-27T23:54:32.781Z,46.85
2022-11-27T23:56:34.351Z,40.38
2022-11-27T23:58:36.326Z,46.97
